Overview Statistics Trail Chart Weather Telemetry Raw packets
 

This is the latest recevied weather packets stored in our database for station/object IU1OPQ-3. If no packets are shown the sender has not sent any weather packets the latest 10 day(s).

<< 4 5 6 7 8 9 10 >>
Time Temp. Humidity Pressure Rain* Wind** Luminosity Snow
1788387600 23.89° C 71% 1019.1 hPa 0 mm - - -
1788386401 23.89° C 69% 1019.4 hPa 0 mm - - -
1788385200 22.78° C 73% 1019.1 hPa 0 mm - - -
1788384001 22.22° C 77% 1019.4 hPa 0 mm - - -
1788382801 22.78° C 76% 1019.3 hPa 0 mm - - -
1788381601 22.78° C 75% 1019.1 hPa 0 mm - - -
1788380400 22.78° C 77% 1018.7 hPa 0 mm - - -
1788379219 23.33° C 75% 1018.8 hPa 0 mm - - -
1788378000 23.33° C 74% 1018.6 hPa 0 mm - - -
1788376800 23.89° C 72% 1018.4 hPa 0 mm - - -
1788375600 23.89° C 70% 1018.3 hPa 0 mm - - -
1788374400 24.44° C 67% 1018.2 hPa 0 mm - - -
1788373200 25° C 64% 1018.1 hPa 0 mm - - -
1788372001 25.56° C 62% 1018 hPa 0 mm - - -
1788370800 26.11° C 57% 1017.9 hPa 0 mm - - -
1788369600 26.67° C 54% 1018.1 hPa 0 mm - - -
1788368400 27.22° C 55% 1017.9 hPa 0 mm - - -
1788367201 27.22° C 55% 1017.9 hPa 0 mm - - -
1788366001 27.78° C 54% 1017.8 hPa 0 mm - - -
1788364801 29.44° C 49% 1017.9 hPa 0 mm - - -
1788363601 28.89° C 49% 1018.2 hPa 0 mm - - -
1788362401 28.89° C 48% 1018.2 hPa 0 mm - - -
1788361201 28.33° C 48% 1018.3 hPa 0 mm - - -
1788360001 28.89° C 48% 1018.2 hPa 0 mm - - -
1788358801 29.44° C 45% 1018.3 hPa 0 mm - - -

* Rain latest hour (hover to see other rain measurements)
** Current wind speed in m/s (hover to see current wind gust speed)